Time;durP1;ratioP1;P1;durP2;ratioP2;P2;SDS_P1;SDS_P2;PMS_P1;PMS_P2;Temp;Humidity;BMP_temperature;BMP_pressure;BME280_temperature;BME280_humidity;BME280_pressure;Samples;Min_cycle;Max_cycle;Signal;HPM_P1;HPM_P2
2023/11/22 00:00:11;;;;;;;5.13;2.63;;;;;;;4.18;91.92;99404.38;5053584;28;20053;-73
2023/11/22 00:02:40;;;;;;;1.98;1.80;;;;;;;4.06;92.49;99404.97;5054332;28;20048;-73
2023/11/22 00:05:11;;;;;;;2.15;1.95;;;;;;;4.04;92.42;99406.63;5054473;28;20053;-73
2023/11/22 00:07:40;;;;;;;3.33;2.25;;;;;;;4.13;92.53;99405.13;5053340;28;20045;-73
2023/11/22 00:10:09;;;;;;;1.58;1.48;;;;;;;4.10;92.26;99384.84;5053977;28;20136;-73
2023/11/22 00:12:38;;;;;;;1.33;1.23;;;;;;;4.19;92.83;99397.66;5054081;28;20045;-72
2023/11/22 00:15:11;;;;;;;1.98;1.88;;;;;;;4.02;92.61;99400.69;5054248;28;20039;-73
2023/11/22 00:17:40;;;;;;;2.50;2.28;;;;;;;3.94;92.47;99399.66;5054056;28;20041;-73
2023/11/22 00:20:10;;;;;;;5.55;3.20;;;;;;;3.88;92.55;99399.56;5054246;28;20103;-73
2023/11/22 00:22:40;;;;;;;2.95;2.53;;;;;;;3.84;92.59;99387.66;5054202;28;20399;-73
2023/11/22 00:25:09;;;;;;;2.65;2.45;;;;;;;3.90;92.75;99402.09;5054111;28;20416;-73
2023/11/22 00:27:42;;;;;;;3.13;2.58;;;;;;;3.95;93.02;99411.50;5053908;28;20517;-73
2023/11/22 00:30:14;;;;;;;4.70;2.67;;;;;;;3.90;92.62;99413.06;5052618;28;20045;-73
2023/11/22 00:32:43;;;;;;;3.22;2.92;;;;;;;3.82;92.53;99409.50;5052926;28;20262;-73
2023/11/22 00:35:15;;;;;;;4.03;2.95;;;;;;;3.93;92.59;99423.22;5052804;28;20071;-73
2023/11/22 00:37:44;;;;;;;7.30;3.67;;;;;;;4.02;93.15;99423.41;5053728;28;20136;-73
2023/11/22 00:40:13;;;;;;;4.38;2.30;;;;;;;4.14;93.40;99421.94;5053402;28;20068;-73
2023/11/22 00:42:43;;;;;;;4.88;2.42;;;;;;;4.23;93.62;99443.19;5053613;28;20033;-73
2023/11/22 00:45:13;;;;;;;;;;;;;;;4.23;93.30;99460.00;5054198;28;20505;-73
2023/11/22 00:47:42;;;;;;;2.63;2.25;;;;;;;4.25;93.56;99460.94;5053621;28;19967;-73
2023/11/22 00:50:11;;;;;;;1.42;1.33;;;;;;;4.34;94.00;99451.00;5052305;28;20068;-73
2023/11/22 00:52:44;;;;;;;4.70;3.85;;;;;;;4.40;94.06;99453.63;5053488;28;20041;-73
2023/11/22 00:55:13;;;;;;;2.33;2.15;;;;;;;4.44;94.12;99445.31;5053552;28;20065;-73
2023/11/22 00:57:43;;;;;;;0.50;0.50;;;;;;;4.62;94.61;99453.25;5053594;28;20044;-73
2023/11/22 01:00:15;;;;;;;1.20;1.13;;;;;;;4.94;94.75;99442.06;5053272;28;20119;-72
2023/11/22 01:02:44;;;;;;;0.93;0.93;;;;;;;5.10;94.52;99444.00;5052877;28;20094;-72
2023/11/22 01:05:15;;;;;;;2.33;1.23;;;;;;;5.16;94.76;99449.16;5053581;28;20052;-72
2023/11/22 01:07:45;;;;;;;1.38;1.15;;;;;;;5.20;94.52;99443.34;5053525;28;20125;-72
2023/11/22 01:10:15;;;;;;;10.57;1.88;;;;;;;5.22;95.08;99443.38;5052128;28;20049;-72
2023/11/22 01:12:44;;;;;;;1.23;1.13;;;;;;;5.23;95.27;99438.31;5053161;28;20056;-72
2023/11/22 01:15:15;;;;;;;1.05;1.02;;;;;;;5.27;95.27;99446.81;5053112;28;20049;-72
2023/11/22 01:17:45;;;;;;;0.30;0.30;;;;;;;5.23;94.84;99435.78;5053161;28;20127;-72
2023/11/22 01:20:14;;;;;;;1.20;1.10;;;;;;;5.34;94.81;99457.06;5051905;28;20106;-72
2023/11/22 01:22:43;;;;;;;1.50;1.40;;;;;;;5.28;95.16;99449.38;5052133;28;20047;-73
2023/11/22 01:25:12;;;;;;;0.80;0.80;;;;;;;5.14;94.66;99445.75;5052223;28;20144;-73
2023/11/22 01:27:41;;;;;;;0.50;0.50;;;;;;;5.29;95.09;99475.53;5053296;28;20041;-72
2023/11/22 01:30:12;;;;;;;0.60;0.60;;;;;;;5.40;95.19;99474.88;5053225;28;20037;-72
2023/11/22 01:33:25;;;;;;;0.52;0.52;;;;;;;5.48;95.29;99471.59;5068769;28;20069;-72
2023/11/22 01:35:54;;;;;;;0.60;0.60;;;;;;;5.47;94.85;99459.81;5052371;28;20048;-72
2023/11/22 01:38:23;;;;;;;0.77;0.73;;;;;;;5.51;94.80;99461.53;5053204;28;20157;-73
2023/11/22 01:40:52;;;;;;;5.05;1.98;;;;;;;5.55;94.79;99463.28;5052086;28;20037;-72
2023/11/22 01:43:23;;;;;;;0.43;0.43;;;;;;;5.61;94.42;99473.53;5051967;28;20063;-72
2023/11/22 01:45:53;;;;;;;0.40;0.40;;;;;;;5.61;94.74;99463.41;5053210;28;20041;-73
2023/11/22 01:48:24;;;;;;;0.40;0.40;;;;;;;5.66;94.66;99462.66;5051594;28;20143;-72
2023/11/22 01:50:53;;;;;;;0.30;0.30;;;;;;;5.69;93.92;99466.88;5053931;28;20091;-72
2023/11/22 01:53:22;;;;;;;0.40;0.40;;;;;;;5.73;94.04;99468.66;5056484;28;20510;-72
2023/11/22 01:55:51;;;;;;;0.80;0.77;;;;;;;5.78;93.93;99474.63;5056777;28;20076;-71
2023/11/22 01:58:22;;;;;;;0.25;0.25;;;;;;;5.80;93.83;99478.03;5055202;28;20498;-71
2023/11/22 02:00:52;;;;;;;0.77;0.77;;;;;;;5.80;93.37;99478.03;5055330;28;20043;-71
2023/11/22 02:03:21;;;;;;;0.38;0.38;;;;;;;5.79;92.83;99476.31;5056491;28;20052;-72
2023/11/22 02:05:54;;;;;;;0.50;0.50;;;;;;;5.78;92.77;99492.34;5055102;28;20072;-73
2023/11/22 02:08:23;;;;;;;4.00;1.45;;;;;;;5.77;92.60;99490.63;5056835;28;20051;-72
2023/11/22 02:10:59;;;;;;;0.33;0.33;;;;;;;5.71;92.46;99480.44;5055395;28;20118;-73
2023/11/22 02:13:30;;;;;;;0.40;0.40;;;;;;;5.81;92.18;99507.56;5056242;28;20041;-72
2023/11/22 02:16:01;;;;;;;1.07;1.00;;;;;;;5.78;91.51;99494.88;5054965;28;20076;-73
2023/11/22 02:18:31;;;;;;;0.57;0.57;;;;;;;5.84;91.77;99497.50;5055052;28;20597;-72
2023/11/22 02:21:02;;;;;;;0.28;0.28;;;;;;;5.85;91.43;99494.19;5055236;28;20037;-72
2023/11/22 02:23:32;;;;;;;0.30;0.30;;;;;;;5.86;91.24;99494.19;5055180;28;20072;-71
2023/11/22 02:26:01;;;;;;;3.30;0.88;;;;;;;5.52;90.58;99428.66;5054856;28;20048;-72
2023/11/22 02:28:30;;;;;;;0.20;0.20;;;;;;;5.82;90.16;99491.56;5056264;28;20041;-71
2023/11/22 02:30:59;;;;;;;0.63;0.63;;;;;;;5.87;90.43;99505.19;5055825;28;20037;-71
2023/11/22 02:33:28;;;;;;;0.30;0.30;;;;;;;5.82;89.79;99494.94;5056671;28;20049;-72
2023/11/22 02:35:58;;;;;;;0.32;0.32;;;;;;;5.86;89.87;99513.59;5055895;28;20121;-70
2023/11/22 02:38:27;;;;;;;0.20;0.20;;;;;;;5.85;89.59;99509.38;5056335;28;20365;-71
2023/11/22 02:40:58;;;;;;;0.47;0.47;;;;;;;5.83;89.31;99516.91;5055945;28;20045;-71
2023/11/22 02:43:27;;;;;;;1.05;1.05;;;;;;;5.67;89.08;99488.78;5054465;28;20056;-70
2023/11/22 02:45:56;;;;;;;0.43;0.43;;;;;;;5.82;88.61;99519.41;5055917;28;20124;-72
2023/11/22 02:48:25;;;;;;;0.40;0.40;;;;;;;5.80;88.72;99521.94;5055843;28;20041;-71
2023/11/22 02:50:54;;;;;;;0.93;0.63;;;;;;;5.79;88.46;99516.81;5054149;28;20377;-71
2023/11/22 02:53:22;;;;;;;0.25;0.25;;;;;;;5.79;88.29;99521.88;5055271;28;20048;-72
2023/11/22 02:55:55;;;;;;;0.60;0.60;;;;;;;5.77;88.13;99521.03;5055170;28;20499;-71
2023/11/22 02:58:26;;;;;;;0.30;0.30;;;;;;;5.75;87.65;99530.28;5054240;28;20052;-71
2023/11/22 03:00:57;;;;;;;0.43;0.43;;;;;;;5.63;87.46;99517.41;5054147;28;20119;-72
2023/11/22 03:03:26;;;;;;;1.00;0.75;;;;;;;5.68;87.89;99525.94;5070274;28;20051;-71
2023/11/22 03:05:55;;;;;;;0.85;0.82;;;;;;;5.57;87.23;99514.78;5054510;28;20041;-72
2023/11/22 03:08:24;;;;;;;0.50;0.50;;;;;;;5.67;86.93;99534.34;5054071;28;20091;-71
2023/11/22 03:10:53;;;;;;;0.50;0.50;;;;;;;5.56;86.85;99523.22;5053811;28;20041;-70
2023/11/22 03:13:21;;;;;;;0.60;0.60;;;;;;;5.62;86.94;99534.28;5053939;28;20102;-67
2023/11/22 03:15:53;;;;;;;0.65;0.65;;;;;;;5.55;86.37;99539.22;5053855;28;20044;-71
2023/11/22 03:18:21;;;;;;;0.40;0.40;;;;;;;5.54;86.38;99540.06;5055622;28;20049;-71
2023/11/22 03:20:54;;;;;;;0.77;0.77;;;;;;;5.54;85.98;99543.44;5053710;28;20075;-71
2023/11/22 03:23:23;;;;;;;0.57;0.57;;;;;;;5.50;86.04;99540.81;5054888;28;20055;-71
2023/11/22 03:25:52;;;;;;;0.30;0.30;;;;;;;5.46;85.86;99541.59;5054929;28;20094;-71
2023/11/22 03:28:22;;;;;;;0.73;0.73;;;;;;;5.41;85.24;99544.91;5053883;28;20274;-72
2023/11/22 03:30:53;;;;;;;0.40;0.40;;;;;;;5.39;85.15;99548.22;5053605;28;20072;-72
2023/11/22 03:33:21;;;;;;;0.30;0.30;;;;;;;5.25;85.20;99535.34;5053567;28;20133;-71
2023/11/22 03:35:50;;;;;;;0.50;0.50;;;;;;;5.26;85.15;99552.22;5054731;28;20090;-72
2023/11/22 03:38:20;;;;;;;0.40;0.40;;;;;;;5.24;85.01;99564.00;5054985;28;20048;-72
2023/11/22 03:40:49;;;;;;;0.40;0.40;;;;;;;5.21;84.95;99563.94;5053507;28;20293;-71
2023/11/22 03:43:18;;;;;;;2.13;0.93;;;;;;;5.21;84.59;99578.25;5053548;28;20048;-72
2023/11/22 03:45:47;;;;;;;0.20;0.20;;;;;;;5.15;84.21;99576.47;5054778;28;20123;-70
2023/11/22 03:48:17;;;;;;;0.85;0.85;;;;;;;5.12;84.47;99573.88;5054702;28;20313;-71
2023/11/22 03:50:46;;;;;;;0.40;0.40;;;;;;;5.12;84.51;99594.13;5053562;28;20079;-71
2023/11/22 03:53:15;;;;;;;0.50;0.50;;;;;;;5.08;84.37;99592.34;5054045;28;20037;-72
2023/11/22 03:55:44;;;;;;;0.40;0.40;;;;;;;4.98;84.20;99577.81;5070127;28;20048;-70
2023/11/22 03:58:13;;;;;;;0.40;0.40;;;;;;;5.04;83.59;99585.50;5054640;28;20099;-71
2023/11/22 04:00:42;;;;;;;0.30;0.30;;;;;;;4.94;84.00;99577.72;5054476;28;20037;-72
2023/11/22 04:03:11;;;;;;;0.50;0.50;;;;;;;4.93;83.37;99587.00;5054117;28;20510;-71
2023/11/22 04:05:41;;;;;;;0.30;0.30;;;;;;;4.97;83.47;99598.84;5054463;28;20033;-72
2023/11/22 04:08:10;;;;;;;0.88;0.88;;;;;;;4.97;83.49;99603.06;5054033;28;20053;-71
2023/11/22 04:10:39;;;;;;;0.32;0.32;;;;;;;4.95;83.14;99597.97;5054285;28;20102;-71
2023/11/22 04:13:08;;;;;;;0.52;0.52;;;;;;;4.93;83.06;99607.22;5053776;28;20498;-72
2023/11/22 04:15:37;;;;;;;1.25;1.00;;;;;;;4.91;83.44;99603.81;5053072;28;20065;-71
2023/11/22 04:18:06;;;;;;;0.73;0.73;;;;;;;4.85;83.64;99593.56;5053271;28;20037;-72
2023/11/22 04:20:35;;;;;;;;;;;;;;;4.90;82.81;99612.19;5070126;28;20628;-70
2023/11/22 04:23:06;;;;;;;1.17;1.08;;;;;;;4.83;82.70;99600.25;5054476;28;20321;-72
2023/11/22 04:25:35;;;;;;;0.30;0.30;;;;;;;4.87;82.48;99618.88;5053827;28;20131;-72
2023/11/22 04:28:04;;;;;;;0.30;0.30;;;;;;;4.82;82.49;99623.84;5054228;28;20495;-71
2023/11/22 04:30:33;;;;;;;0.30;0.30;;;;;;;4.82;82.64;99623.00;5053663;28;20290;-72
2023/11/22 04:33:02;;;;;;;0.43;0.43;;;;;;;4.80;82.64;99620.41;5053617;28;20040;-71
2023/11/22 04:35:36;;;;;;;0.45;0.45;;;;;;;4.70;82.18;99623.59;5053506;28;20030;-72
2023/11/22 04:38:08;;;;;;;0.40;0.40;;;;;;;4.76;82.49;99643.94;5053548;28;20055;-71
2023/11/22 04:40:37;;;;;;;0.30;0.30;;;;;;;4.76;82.37;99649.00;5053569;28;20079;-72
2023/11/22 04:43:06;;;;;;;0.45;0.45;;;;;;;4.78;82.32;99662.50;5053757;28;20152;-71
2023/11/22 04:45:35;;;;;;;0.50;0.50;;;;;;;4.71;82.42;99655.59;5053734;28;20055;-72
2023/11/22 04:48:06;;;;;;;0.30;0.30;;;;;;;4.73;82.40;99659.88;5053926;28;20125;-71
2023/11/22 04:50:35;;;;;;;0.50;0.50;;;;;;;4.68;82.14;99660.59;5053314;28;20055;-71
2023/11/22 04:53:04;;;;;;;0.30;0.30;;;;;;;4.74;82.24;99680.97;5053270;28;20087;-71
2023/11/22 04:55:34;;;;;;;0.40;0.40;;;;;;;4.64;81.64;99664.75;5053799;28;20041;-70
2023/11/22 04:58:04;;;;;;;0.60;0.60;;;;;;;4.61;82.18;99667.19;5053866;28;20049;-71
2023/11/22 05:00:32;;;;;;;0.47;0.47;;;;;;;4.75;82.16;99692.81;5053424;28;20037;-72
2023/11/22 05:03:01;;;;;;;1.15;1.02;;;;;;;4.74;81.80;99691.06;5053548;28;20033;-72
2023/11/22 05:05:30;;;;;;;1.60;1.50;;;;;;;4.75;81.64;99702.91;5053188;28;20045;-71
2023/11/22 05:07:59;;;;;;;0.30;0.30;;;;;;;4.73;81.81;99709.56;5053230;28;20087;-71
2023/11/22 05:10:28;;;;;;;0.50;0.50;;;;;;;4.77;81.29;99715.56;5053473;28;20038;-70
2023/11/22 05:13:00;;;;;;;3.40;0.95;;;;;;;4.74;81.28;99721.41;5053388;28;20049;-71
2023/11/22 05:15:29;;;;;;;1.25;1.15;;;;;;;4.74;81.49;99721.41;5053189;28;20048;-72
2023/11/22 05:17:58;;;;;;;0.40;0.40;;;;;;;4.75;80.82;99731.53;5053116;28;20124;-71
2023/11/22 05:20:27;;;;;;;0.40;0.40;;;;;;;4.74;80.89;99731.53;5053444;28;20061;-72
2023/11/22 05:22:56;;;;;;;0.30;0.30;;;;;;;4.77;80.73;99731.59;5053320;28;20052;-72
2023/11/22 05:25:25;;;;;;;0.50;0.50;;;;;;;4.78;80.70;99740.00;5054038;28;20033;-71
2023/11/22 05:27:53;;;;;;;0.93;0.93;;;;;;;4.80;80.45;99751.03;5057638;28;20770;-72
2023/11/22 05:30:24;;;;;;;0.20;0.20;;;;;;;4.79;80.54;99745.13;5057397;28;20063;-72
2023/11/22 05:32:53;;;;;;;2.10;1.55;;;;;;;4.81;80.37;99755.25;5057458;28;20480;-72
2023/11/22 05:35:23;;;;;;;0.30;0.30;;;;;;;4.78;80.01;99743.41;5056919;28;20037;-72
2023/11/22 05:37:51;;;;;;;0.40;0.40;;;;;;;4.80;79.88;99744.28;5057140;28;20044;-72
2023/11/22 05:40:21;;;;;;;2.30;0.93;;;;;;;4.81;79.73;99748.53;5057109;28;20083;-72
2023/11/22 05:42:50;;;;;;;0.30;0.30;;;;;;;4.76;79.56;99745.03;5056761;28;20281;-71
2023/11/22 05:45:19;;;;;;;0.40;0.40;;;;;;;4.79;79.43;99754.38;5056979;28;20434;-72
2023/11/22 05:47:49;;;;;;;0.40;0.40;;;;;;;4.79;79.52;99760.28;5056951;28;20395;-72
2023/11/22 05:50:18;;;;;;;0.40;0.40;;;;;;;4.75;79.36;99771.16;5056711;28;20048;-71
2023/11/22 05:52:47;;;;;;;0.40;0.40;;;;;;;4.61;79.77;99750.59;5056667;28;20091;-72
2023/11/22 05:55:18;;;;;;;2.05;1.58;;;;;;;4.72;79.49;99766.88;5056312;28;20064;-72
2023/11/22 05:57:48;;;;;;;0.68;0.68;;;;;;;4.70;79.55;99772.72;5056434;28;20091;-72
2023/11/22 06:00:17;;;;;;;0.50;0.50;;;;;;;4.64;79.63;99780.13;5057325;28;20403;-72
2023/11/22 06:02:46;;;;;;;1.85;1.38;;;;;;;4.67;79.65;99783.63;5056675;28;20072;-71
2023/11/22 06:05:16;;;;;;;0.40;0.40;;;;;;;4.69;79.62;99781.09;5056749;28;20045;-71
2023/11/22 06:07:45;;;;;;;0.68;0.68;;;;;;;4.70;79.39;99791.25;5056646;28;20087;-72
2023/11/22 06:10:15;;;;;;;0.40;0.40;;;;;;;4.67;79.14;99795.38;5056316;28;20041;-72
2023/11/22 06:12:44;;;;;;;0.28;0.28;;;;;;;4.66;79.17;99803.78;5056795;28;20068;-71
2023/11/22 06:15:13;;;;;;;0.50;0.50;;;;;;;4.65;79.21;99802.09;5055254;28;20045;-71
2023/11/22 06:17:42;;;;;;;0.40;0.40;;;;;;;4.64;79.15;99800.38;5056406;28;20071;-72
2023/11/22 06:20:12;;;;;;;0.47;0.47;;;;;;;4.65;78.97;99809.66;5056613;28;20045;-71
2023/11/22 06:22:44;;;;;;;0.20;0.20;;;;;;;4.61;78.88;99816.31;5056101;28;20076;-71
2023/11/22 06:25:13;;;;;;;0.50;0.50;;;;;;;4.59;78.58;99819.59;5055972;28;20057;-72
2023/11/22 06:27:42;;;;;;;0.98;0.70;;;;;;;4.61;78.62;99823.88;5056295;28;20064;-69
2023/11/22 06:30:11;;;;;;;1.13;1.07;;;;;;;4.63;78.47;99842.47;5055971;28;20132;-72
2023/11/22 06:32:42;;;;;;;0.50;0.50;;;;;;;4.75;78.87;99834.38;5055871;28;20350;-71
2023/11/22 06:35:14;;;;;;;0.30;0.30;;;;;;;4.84;78.37;99834.56;5056370;28;20040;-71
2023/11/22 06:37:45;;;;;;;0.30;0.30;;;;;;;4.83;78.18;99842.09;5055123;28;20045;-69
2023/11/22 06:40:14;;;;;;;0.65;0.65;;;;;;;4.76;77.95;99846.16;5055704;28;20049;-72
2023/11/22 06:42:42;;;;;;;0.33;0.33;;;;;;;4.70;77.96;99846.84;5055276;28;20091;-72
2023/11/22 06:45:12;;;;;;;0.82;0.82;;;;;;;4.67;77.65;99849.34;5055603;28;20443;-72
2023/11/22 06:47:41;;;;;;;0.98;0.98;;;;;;;4.67;77.78;99856.06;5055759;28;20053;-72
2023/11/22 06:50:11;;;;;;;0.40;0.40;;;;;;;4.62;77.68;99852.56;5055972;28;20157;-72
2023/11/22 06:52:41;;;;;;;0.45;0.45;;;;;;;4.57;77.53;99844.00;5055948;28;20120;-71
2023/11/22 06:55:12;;;;;;;1.50;1.40;;;;;;;4.56;77.94;99858.28;5055349;28;20407;-72
2023/11/22 06:57:41;;;;;;;0.68;0.68;;;;;;;4.54;77.47;99854.88;5055595;28;20052;-72
2023/11/22 07:00:12;;;;;;;0.77;0.77;;;;;;;4.51;77.50;99864.06;5055764;28;20045;-72
2023/11/22 07:02:41;;;;;;;0.70;0.70;;;;;;;4.50;77.57;99859.81;5055548;28;20344;-72
2023/11/22 07:05:10;;;;;;;0.35;0.35;;;;;;;4.45;77.82;99854.66;5055607;28;20059;-72
2023/11/22 07:07:40;;;;;;;0.40;0.40;;;;;;;4.44;77.67;99857.16;5055232;28;20499;-73
2023/11/22 07:10:11;;;;;;;1.25;1.08;;;;;;;4.40;77.88;99861.25;5055359;28;20084;-73
2023/11/22 07:12:43;;;;;;;1.45;1.08;;;;;;;4.38;77.86;99867.06;5055170;28;20080;-72
2023/11/22 07:15:12;;;;;;;0.40;0.40;;;;;;;4.29;77.39;99869.34;5055264;28;20108;-71
2023/11/22 07:17:41;;;;;;;0.63;0.63;;;;;;;4.36;77.39;99882.19;5055091;28;20052;-72
2023/11/22 07:20:16;;;;;;;1.65;1.38;;;;;;;4.32;78.04;99882.06;5055045;28;20270;-72
2023/11/22 07:22:45;;;;;;;0.30;0.30;;;;;;;4.34;78.12;99890.56;5055004;28;20103;-69
2023/11/22 07:25:17;;;;;;;0.60;0.60;;;;;;;4.35;77.56;99892.25;5055512;28;20051;-72
2023/11/22 07:27:48;;;;;;;0.40;0.40;;;;;;;4.38;77.72;99903.31;5055521;28;20452;-72
2023/11/22 07:30:19;;;;;;;0.88;0.77;;;;;;;4.40;77.51;99901.66;5054833;28;20052;-72
2023/11/22 07:32:48;;;;;;;0.80;0.80;;;;;;;4.44;77.79;99903.44;5055409;28;20479;-71
2023/11/22 07:35:19;;;;;;;2.33;1.40;;;;;;;4.53;77.57;99903.72;5054627;28;20045;-70
2023/11/22 07:37:51;;;;;;;0.20;0.20;;;;;;;4.54;77.46;99904.56;5054989;28;20052;-72
2023/11/22 07:40:21;;;;;;;0.50;0.50;;;;;;;4.53;77.15;99892.75;5054662;28;20037;-72
2023/11/22 07:42:52;;;;;;;0.50;0.50;;;;;;;4.71;77.20;99923.56;5055660;28;20037;-72
2023/11/22 07:45:24;;;;;;;0.95;0.80;;;;;;;4.69;77.00;99910.03;5054740;28;20045;-74
2023/11/22 07:47:53;;;;;;;0.52;0.52;;;;;;;4.77;76.89;99913.63;5054913;28;20450;-71
2023/11/22 07:50:24;;;;;;;0.47;0.47;;;;;;;4.85;76.91;99917.19;5054680;28;20049;-71
2023/11/22 07:52:53;;;;;;;0.40;0.40;;;;;;;4.99;76.59;99925.97;5054789;28;20056;-71
2023/11/22 07:55:22;;;;;;;;;;;;;;;4.97;76.32;99922.56;5054552;28;20245;-71
2023/11/22 07:57:55;;;;;;;0.38;0.38;;;;;;;4.94;76.01;99935.16;5054488;28;19920;-73
2023/11/22 08:00:24;;;;;;;0.35;0.35;;;;;;;4.90;76.09;99938.38;5054670;28;20045;-72
2023/11/22 08:02:54;;;;;;;1.17;1.15;;;;;;;4.85;75.74;99942.47;5054136;28;20049;-72
2023/11/22 08:05:24;;;;;;;0.95;0.93;;;;;;;4.87;75.91;99935.78;5054712;28;20049;-72
2023/11/22 08:07:53;;;;;;;1.02;1.00;;;;;;;4.74;76.04;99923.66;5054496;28;20140;-72
2023/11/22 08:10:25;;;;;;;0.80;0.80;;;;;;;4.81;76.00;99935.63;5054551;28;20060;-71
2023/11/22 08:12:55;;;;;;;0.68;0.68;;;;;;;5.01;75.79;99959.78;5054728;28;20049;-72
2023/11/22 08:15:24;;;;;;;0.57;0.57;;;;;;;5.14;75.75;99959.25;5054060;28;20052;-70
2023/11/22 08:17:53;;;;;;;0.20;0.20;;;;;;;5.25;75.78;99964.59;5054283;28;20045;-71
2023/11/22 08:20:22;;;;;;;0.50;0.50;;;;;;;5.42;75.21;99974.28;5053964;28;20483;-72
2023/11/22 08:22:50;;;;;;;0.40;0.40;;;;;;;5.58;75.09;99979.72;5054080;28;20044;-72
2023/11/22 08:25:19;;;;;;;0.45;0.45;;;;;;;5.71;74.70;99981.75;5053838;28;20127;-72
2023/11/22 08:27:48;;;;;;;0.93;0.88;;;;;;;5.84;73.99;99978.66;5054175;28;20044;-72
2023/11/22 08:30:19;;;;;;;1.93;1.80;;;;;;;5.85;73.86;99988.00;5053725;28;20099;-72
2023/11/22 08:32:53;;;;;;;0.52;0.52;;;;;;;5.81;73.25;99978.56;5053736;28;20274;-69
2023/11/22 08:35:24;;;;;;;0.60;0.60;;;;;;;5.83;72.92;99989.63;5053666;28;20128;-70
2023/11/22 08:37:53;;;;;;;;;;;;;;;5.90;73.15;99988.97;5054419;28;20091;-68
2023/11/22 08:40:21;;;;;;;0.57;0.57;;;;;;;5.97;72.94;99995.88;5052768;28;20256;-71
2023/11/22 08:42:51;;;;;;;0.98;0.88;;;;;;;6.12;72.98;100001.28;5054127;28;20064;-72
2023/11/22 08:45:21;;;;;;;1.45;1.13;;;;;;;6.16;71.79;99995.47;5053736;28;20045;-71
2023/11/22 08:47:51;;;;;;;1.13;0.68;;;;;;;6.18;72.37;100014.09;5053680;28;20098;-72
2023/11/22 08:50:21;;;;;;;0.50;0.50;;;;;;;6.31;71.71;100008.44;5053421;28;20044;-71
2023/11/22 08:52:52;;;;;;;2.00;1.40;;;;;;;6.33;71.22;100016.97;5052390;28;20049;-72
2023/11/22 08:55:22;;;;;;;0.57;0.57;;;;;;;6.38;71.78;100012.00;5053159;28;20103;-68
2023/11/22 08:57:51;;;;;;;;;;;;;;;6.27;71.12;100019.34;5053906;28;20049;-71
2023/11/22 09:00:23;;;;;;;1.60;1.50;;;;;;;6.30;70.58;100013.50;5051884;28;19967;-72
2023/11/22 09:03:26;;;;;;;0.30;0.30;;;;;;;6.54;71.96;100022.47;5053635;28;20045;-73
2023/11/22 09:05:56;;;;;;;0.50;0.50;;;;;;;6.63;70.70;100015.06;5053563;28;20148;-67
2023/11/22 09:08:25;;;;;;;0.40;0.40;;;;;;;6.56;70.08;100025.91;5053566;28;20045;-71
2023/11/22 09:10:57;;;;;;;0.20;0.20;;;;;;;6.55;69.73;100008.97;5053432;28;20278;-71
2023/11/22 09:13:26;;;;;;;1.23;1.13;;;;;;;6.79;70.53;100017.91;5053994;28;20077;-71
2023/11/22 09:15:56;;;;;;;10.70;3.20;;;;;;;6.87;69.58;100037.50;5053193;28;20033;-71
2023/11/22 09:18:26;;;;;;;0.82;0.82;;;;;;;6.98;69.62;100037.72;5053537;28;20099;-71
2023/11/22 09:20:55;;;;;;;0.63;0.63;;;;;;;6.99;68.87;100036.88;5053270;28;20111;-68
2023/11/22 09:23:26;;;;;;;0.37;0.37;;;;;;;6.95;68.29;100036.00;5053355;28;20129;-73
2023/11/22 09:29:49;;;;;;;0.40;0.40;;;;;;;7.03;69.03;100036.16;5053081;28;20037;-71
2023/11/22 09:32:21;;;;;;;0.60;0.60;;;;;;;6.72;68.32;100012.69;5053032;28;20106;-73
2023/11/22 09:34:55;;;;;;;1.40;0.93;;;;;;;6.68;68.67;100015.16;5041580;28;20488;-72
2023/11/22 09:37:24;;;;;;;2.08;1.33;;;;;;;6.79;68.49;100028.06;5043452;28;20088;-72
2023/11/22 09:39:54;;;;;;;0.40;0.40;;;;;;;6.88;68.67;100029.09;5047262;28;20033;-68
2023/11/22 09:42:24;;;;;;;0.30;0.30;;;;;;;6.82;68.52;100012.88;5040229;28;20038;-71
2023/11/22 09:44:52;;;;;;;0.70;0.70;;;;;;;6.92;68.72;100019.84;5040623;28;20046;-72
2023/11/22 09:47:26;;;;;;;0.90;0.90;;;;;;;7.02;68.13;100022.59;5039826;28;20037;-72
2023/11/22 09:53:32;;;;;;;0.30;0.30;;;;;;;7.33;67.25;100014.72;5043073;28;20038;-72
2023/11/22 09:56:03;;;;;;;2.05;1.00;;;;;;;7.24;67.69;100013.69;5042162;28;20048;-71
2023/11/22 09:58:34;;;;;;;0.50;0.50;;;;;;;7.26;67.50;100028.13;5042960;28;20107;-68
2023/11/22 10:01:04;;;;;;;0.63;0.63;;;;;;;7.22;67.75;100025.50;5041093;28;20085;-67
2023/11/22 10:03:36;;;;;;;0.40;0.40;;;;;;;6.93;67.26;99976.75;5040903;28;20582;-72
2023/11/22 10:06:09;;;;;;;0.30;0.30;;;;;;;7.28;66.24;100030.69;5042165;28;20045;-72
2023/11/22 10:08:40;;;;;;;1.83;1.73;;;;;;;7.33;67.18;100024.84;5038779;28;20032;-72
2023/11/22 10:11:09;;;;;;;;;;;;;;;7.37;66.48;100028.28;5043202;28;20137;-71
2023/11/22 10:13:38;;;;;;;0.40;0.40;;;;;;;7.42;66.28;100024.16;5042644;28;19921;-72
2023/11/22 10:16:11;;;;;;;0.50;0.50;;;;;;;7.67;66.29;100020.34;5055411;28;20067;-69
2023/11/22 10:18:43;;;;;;;0.77;0.77;;;;;;;7.77;66.79;100033.25;5056795;28;20426;-69
2023/11/22 10:21:25;;;;;;;2.33;1.13;;;;;;;7.66;65.26;100039.81;5056279;28;20041;-71
2023/11/22 10:23:57;;;;;;;1.35;1.25;;;;;;;7.75;65.59;100039.94;5056139;28;20056;-66
2023/11/22 10:26:29;;;;;;;0.85;0.85;;;;;;;7.96;65.86;100035.22;5056341;28;20049;-71
2023/11/22 10:29:05;;;;;;;1.88;1.70;;;;;;;8.11;64.96;100044.75;5055903;28;20561;-72
2023/11/22 10:31:35;;;;;;;0.40;0.40;;;;;;;7.98;65.03;100048.81;5043649;28;20037;-71
2023/11/22 10:34:06;;;;;;;0.65;0.63;;;;;;;7.92;63.58;100063.94;5039964;28;20060;-72
2023/11/22 10:36:36;;;;;;;0.50;0.50;;;;;;;7.78;63.19;100070.50;5036217;28;20053;-73
2023/11/22 10:39:09;;;;;;;0.40;0.40;;;;;;;7.84;64.31;100085.84;5036349;28;20061;-72
2023/11/22 10:41:39;;;;;;;0.68;0.68;;;;;;;7.83;62.97;100089.22;5035780;28;20053;-72
2023/11/22 10:44:09;;;;;;;0.40;0.40;;;;;;;7.93;63.26;100096.16;5045266;28;20057;-73
2023/11/22 10:46:40;;;;;;;1.88;1.73;;;;;;;8.07;63.60;100084.53;5046674;28;20049;-67
2023/11/22 10:49:11;;;;;;;1.02;0.70;;;;;;;8.01;62.73;100089.50;5040844;28;20033;-69
2023/11/22 10:51:42;;;;;;;2.75;0.75;;;;;;;8.01;62.57;100099.66;5046303;28;20091;-72
2023/11/22 10:54:11;;;;;;;0.47;0.45;;;;;;;8.06;62.04;100113.31;5044914;28;20045;-71
2023/11/22 10:56:42;;;;;;;0.82;0.75;;;;;;;8.16;63.43;100116.03;5044807;28;20096;-73
2023/11/22 10:59:16;;;;;;;0.55;0.55;;;;;;;8.19;62.82;100113.50;5044115;28;20049;-72
2023/11/22 11:01:48;;;;;;;0.30;0.30;;;;;;;8.07;62.22;100117.56;5044660;28;20509;-73
2023/11/22 11:04:30;;;;;;;2.33;1.38;;;;;;;8.19;62.22;100116.03;5039936;28;20108;-74
2023/11/22 11:07:01;;;;;;;2.17;1.98;;;;;;;8.43;62.36;100113.91;5035389;28;20496;-74
2023/11/22 11:09:32;;;;;;;1.95;1.10;;;;;;;8.51;61.88;100117.44;5036033;28;20050;-71
2023/11/22 11:12:03;;;;;;;2.65;1.73;;;;;;;8.07;61.40;100056.56;5035233;28;20049;-73
2023/11/22 11:14:37;;;;;;;0.47;0.47;;;;;;;8.52;61.62;100129.31;5035289;28;20136;-72
2023/11/22 11:17:07;;;;;;;1.13;1.02;;;;;;;8.60;61.98;100126.06;5033940;28;20124;-72
2023/11/22 11:19:38;;;;;;;0.60;0.60;;;;;;;8.64;61.77;100120.16;5035467;28;20099;-70
2023/11/22 11:22:09;;;;;;;0.70;0.70;;;;;;;8.68;60.69;100126.16;5035246;28;20065;-72
2023/11/22 11:24:44;;;;;;;1.10;0.90;;;;;;;8.50;60.27;100090.28;5033589;28;20064;-72
2023/11/22 11:27:13;;;;;;;0.70;0.70;;;;;;;8.72;61.24;100115.19;5035537;28;20045;-72
2023/11/22 11:29:43;;;;;;;0.63;0.63;;;;;;;8.69;60.77;100103.28;5034943;28;20042;-72
2023/11/22 11:32:17;;;;;;;1.75;1.25;;;;;;;8.35;60.46;100085.00;5034844;28;20503;-73
2023/11/22 11:34:51;;;;;;;1.00;0.90;;;;;;;8.22;60.32;100088.13;5035188;28;20045;-74
2023/11/22 11:37:21;;;;;;;0.55;0.55;;;;;;;8.53;61.14;100090.31;5034950;28;20045;-71
2023/11/22 11:39:50;;;;;;;0.43;0.43;;;;;;;8.52;60.14;100096.22;5035237;28;20045;-73
2023/11/22 11:42:19;;;;;;;1.90;1.40;;;;;;;8.45;60.85;100096.97;5034933;28;20033;-75
2023/11/22 11:45:06;;;;;;;0.63;0.63;;;;;;;8.42;60.09;100097.78;5034775;28;20285;-72
2023/11/22 11:47:36;;;;;;;2.67;1.60;;;;;;;8.56;60.47;100105.63;5035015;28;20052;-70
2023/11/22 11:50:07;;;;;;;1.20;0.80;;;;;;;8.80;60.22;100093.25;5034918;28;20372;-75
2023/11/22 11:52:40;;;;;;;0.95;0.95;;;;;;;8.85;59.44;100099.25;5034759;28;20385;-74
2023/11/22 11:55:10;;;;;;;0.50;0.50;;;;;;;8.77;59.06;100090.66;5034254;28;20111;-74
2023/11/22 11:57:41;;;;;;;0.75;0.75;;;;;;;8.75;58.97;100100.81;5034903;28;20040;-74
2023/11/22 12:00:14;;;;;;;0.85;0.82;;;;;;;8.97;59.65;100099.41;5034603;28;20120;-76
2023/11/22 12:02:43;;;;;;;1.13;0.98;;;;;;;8.85;58.35;100106.88;5034396;28;20060;-75